Time;durP1;ratioP1;P1;durP2;ratioP2;P2;SDS_P1;SDS_P2;PMS_P1;PMS_P2;Temp;Humidity;BMP_temperature;BMP_pressure;BME280_temperature;BME280_humidity;BME280_pressure;Samples;Min_cycle;Max_cycle;Signal;HPM_P1;HPM_P2
2021/07/17 00:01:07;;;;;;;2.42;1.92;;;24.40;62.20;;;;;;6216147;28;20029;-70
2021/07/17 00:04:07;;;;;;;2.00;1.80;;;24.40;62.20;;;;;;6220764;28;20138;-70
2021/07/17 00:07:08;;;;;;;2.22;1.67;;;24.40;62.20;;;;;;6217300;28;20038;-70
2021/07/17 00:10:19;;;;;;;1.65;1.55;;;24.40;62.20;;;;;;6216547;28;20041;-70
2021/07/17 00:13:20;;;;;;;1.65;1.55;;;24.40;62.20;;;;;;6215076;28;20246;-70
2021/07/17 00:16:26;;;;;;;2.60;1.65;;;24.40;62.20;;;;;;6215301;28;20040;-70
2021/07/17 00:19:27;;;;;;;1.73;1.52;;;24.40;62.20;;;;;;6215552;28;20050;-70
2021/07/17 00:22:27;;;;;;;2.03;1.70;;;24.40;62.20;;;;;;6215713;28;20705;-70
2021/07/17 00:25:28;;;;;;;1.50;1.40;;;24.40;62.20;;;;;;6207748;28;20062;-70
2021/07/17 00:28:29;;;;;;;1.60;1.50;;;24.40;62.30;;;;;;6195322;28;20077;-70
2021/07/17 00:31:30;;;;;;;2.00;1.80;;;24.40;62.20;;;;;;6215006;28;20030;-70
2021/07/17 00:34:31;;;;;;;1.98;1.70;;;24.40;62.20;;;;;;6214933;28;20680;-70
2021/07/17 00:37:32;;;;;;;1.48;1.33;;;24.40;62.30;;;;;;6214673;28;20049;-71
2021/07/17 00:40:33;;;;;;;1.60;1.50;;;24.40;62.20;;;;;;6214880;28;20026;-70
2021/07/17 00:43:34;;;;;;;1.70;1.60;;;24.40;62.20;;;;;;6214933;28;20040;-71
2021/07/17 00:46:35;;;;;;;1.42;1.33;;;24.40;62.20;;;;;;6214541;28;20021;-71
2021/07/17 00:49:35;;;;;;;1.70;1.48;;;24.40;62.20;;;;;;6214116;28;20030;-70
2021/07/17 00:52:36;;;;;;;1.90;1.80;;;24.40;62.20;;;;;;6214650;28;20068;-70
2021/07/17 00:55:42;;;;;;;1.65;1.50;;;24.40;62.20;;;;;;6208945;28;20062;-70
2021/07/17 00:58:46;;;;;;;1.50;1.40;;;24.40;62.20;;;;;;6214199;28;20030;-70
2021/07/17 01:01:50;;;;;;;2.58;1.67;;;24.40;62.20;;;;;;6214740;28;20477;-70
2021/07/17 01:04:53;;;;;;;1.52;1.42;;;24.40;62.20;;;;;;6203002;28;20050;-70
2021/07/17 01:07:54;;;;;;;1.73;1.33;;;24.40;62.20;;;;;;6190392;28;20406;-70
2021/07/17 01:10:54;;;;;;;1.40;1.30;;;24.40;62.20;;;;;;6204971;28;20083;-70
2021/07/17 01:13:55;;;;;;;1.67;1.58;;;24.40;62.20;;;;;;6229657;28;20429;-70
2021/07/17 01:16:56;;;;;;;1.77;1.40;;;24.40;62.20;;;;;;6214295;28;20567;-70
2021/07/17 01:19:56;;;;;;;1.27;1.17;;;24.40;62.30;;;;;;6214058;28;20026;-71
2021/07/17 01:22:57;;;;;;;1.42;1.33;;;24.40;62.20;;;;;;6214654;28;20030;-71
2021/07/17 01:25:58;;;;;;;1.27;1.10;;;24.40;62.30;;;;;;6203009;28;20034;-71
2021/07/17 01:28:58;;;;;;;1.63;1.40;;;24.40;62.30;;;;;;6189925;28;20081;-70
2021/07/17 01:32:00;;;;;;;1.35;1.25;;;24.40;62.20;;;;;;6210481;28;20497;-70
2021/07/17 01:35:01;;;;;;;1.50;1.40;;;24.40;62.30;;;;;;6214008;28;20488;-70
2021/07/17 01:38:01;;;;;;;1.27;1.17;;;24.40;62.20;;;;;;6229380;28;20208;-70
2021/07/17 01:41:02;;;;;;;1.50;1.40;;;24.40;62.30;;;;;;6215057;28;20053;-70
2021/07/17 01:44:04;;;;;;;1.35;1.25;;;24.40;62.30;;;;;;6218331;28;20018;-70
2021/07/17 01:47:04;;;;;;;1.42;1.30;;;24.40;62.30;;;;;;6218583;28;20029;-70
2021/07/17 01:50:07;;;;;;;1.35;1.25;;;24.40;62.20;;;;;;6218873;28;20036;-70
2021/07/17 01:53:10;;;;;;;2.05;1.42;;;24.40;62.30;;;;;;6212902;28;20015;-70
2021/07/17 01:56:11;;;;;;;1.40;1.30;;;24.40;62.20;;;;;;6218389;28;20108;-70
2021/07/17 01:59:12;;;;;;;1.75;1.60;;;24.40;62.20;;;;;;6218531;28;20034;-70
2021/07/17 02:02:13;;;;;;;1.77;1.45;;;24.40;62.30;;;;;;6218296;28;20575;-71
2021/07/17 02:05:15;;;;;;;1.35;1.25;;;24.40;62.30;;;;;;6218320;28;20057;-70
2021/07/17 02:08:16;;;;;;;1.25;1.15;;;24.40;62.30;;;;;;6218501;28;20018;-70
2021/07/17 02:11:16;;;;;;;1.63;1.40;;;24.40;62.30;;;;;;6218477;28;20053;-70
2021/07/17 02:14:17;;;;;;;1.30;1.20;;;24.40;62.20;;;;;;6218306;28;20540;-70
2021/07/17 02:17:18;;;;;;;1.55;1.17;;;24.40;63.10;;;;;;6217370;28;20084;-70
2021/07/17 02:20:20;;;;;;;1.50;1.40;;;24.40;62.30;;;;;;6218136;28;20508;-70
2021/07/17 02:23:20;;;;;;;1.75;1.52;;;24.40;62.30;;;;;;6217825;28;20065;-71
2021/07/17 02:26:21;;;;;;;1.52;1.42;;;24.40;62.20;;;;;;6210979;28;20061;-70
2021/07/17 02:29:21;;;;;;;1.42;1.30;;;24.40;62.30;;;;;;6217582;28;20057;-70
2021/07/17 02:32:22;;;;;;;1.70;1.50;;;24.40;62.30;;;;;;6217863;28;20412;-70
2021/07/17 02:35:23;;;;;;;1.50;1.33;;;24.40;62.20;;;;;;6217640;28;20129;-70
2021/07/17 02:38:23;;;;;;;1.40;1.27;;;24.40;62.30;;;;;;6217353;28;20022;-71
2021/07/17 02:41:24;;;;;;;1.63;1.40;;;24.40;62.30;;;;;;6217066;28;20034;-70
2021/07/17 02:44:25;;;;;;;1.30;1.20;;;24.40;62.30;;;;;;6217644;28;20584;-70
2021/07/17 02:47:25;;;;;;;1.55;1.30;;;24.40;62.30;;;;;;6217137;28;20295;-70
2021/07/17 02:50:26;;;;;;;1.45;1.35;;;24.40;62.30;;;;;;6217379;28;20030;-71
2021/07/17 02:53:26;;;;;;;1.75;1.20;;;24.40;62.30;;;;;;6201903;28;20034;-70
2021/07/17 02:56:27;;;;;;;1.30;1.10;;;24.40;62.30;;;;;;6176410;28;20057;-70
2021/07/17 02:59:27;;;;;;;1.77;1.30;;;24.40;62.30;;;;;;6217154;28;20033;-71
2021/07/17 03:02:28;;;;;;;1.40;1.30;;;24.40;62.20;;;;;;6216912;28;20113;-70
2021/07/17 03:05:29;;;;;;;1.23;1.13;;;24.40;62.20;;;;;;6217028;28;20069;-70
2021/07/17 03:08:29;;;;;;;1.45;1.35;;;24.40;62.30;;;;;;6216968;28;20037;-70
2021/07/17 03:11:33;;;;;;;1.52;1.35;;;24.40;62.30;;;;;;6216892;28;20114;-70
2021/07/17 03:14:33;;;;;;;1.20;1.10;;;24.40;62.30;;;;;;6216923;28;20025;-70
2021/07/17 03:17:34;;;;;;;1.40;1.30;;;24.40;62.30;;;;;;6216148;28;20053;-70
2021/07/17 03:20:34;;;;;;;1.40;1.30;;;24.40;62.30;;;;;;6217039;28;20022;-70
2021/07/17 03:23:35;;;;;;;1.10;1.00;;;24.40;62.30;;;;;;6216637;28;20026;-70
2021/07/17 03:26:36;;;;;;;1.83;1.23;;;24.40;62.30;;;;;;6172272;28;20171;-71
2021/07/17 03:29:36;;;;;;;1.50;1.40;;;24.40;62.30;;;;;;6185531;28;20585;-70
2021/07/17 03:32:37;;;;;;;1.17;1.08;;;24.40;62.30;;;;;;6188469;28;20514;-70
2021/07/17 03:35:38;;;;;;;1.40;1.30;;;24.40;62.30;;;;;;6185375;28;20548;-70
2021/07/17 03:38:38;;;;;;;1.23;1.13;;;24.40;62.30;;;;;;6188432;28;20474;-70
2021/07/17 03:41:39;;;;;;;1.30;1.20;;;24.40;62.30;;;;;;6188505;28;20061;-70
2021/07/17 03:44:39;;;;;;;1.10;1.00;;;24.40;62.30;;;;;;6187868;28;20074;-70
2021/07/17 03:47:40;;;;;;;1.50;1.27;;;24.40;62.30;;;;;;6187635;28;20073;-71
2021/07/17 03:50:40;;;;;;;1.38;1.27;;;24.40;62.30;;;;;;6188341;28;20037;-70
2021/07/17 03:53:41;;;;;;;1.55;1.25;;;24.40;62.30;;;;;;6178227;28;20098;-70
2021/07/17 03:56:41;;;;;;;1.40;1.30;;;24.40;62.30;;;;;;6169021;28;20096;-70
2021/07/17 04:03:39;;;;;;;1.20;1.10;;;24.40;62.30;;;;;;6206854;28;20038;-70
2021/07/17 04:06:40;;;;;;;1.30;1.15;;;24.40;62.30;;;;;;6191200;28;20108;-71
2021/07/17 04:09:41;;;;;;;1.02;0.93;;;24.40;62.30;;;;;;6207437;28;20022;-70
2021/07/17 04:12:41;;;;;;;1.40;1.20;;;24.40;62.30;;;;;;6205504;28;20041;-71
2021/07/17 04:15:42;;;;;;;1.63;1.33;;;24.40;62.30;;;;;;6211817;28;20038;-70
2021/07/17 04:18:43;;;;;;;1.65;1.55;;;24.40;62.30;;;;;;6215291;28;20052;-71
2021/07/17 04:21:43;;;;;;;1.25;1.10;;;24.40;62.30;;;;;;6215194;28;20022;-70
2021/07/17 04:24:44;;;;;;;1.15;1.05;;;24.40;62.30;;;;;;6214033;28;20057;-71
2021/07/17 04:27:44;;;;;;;1.23;1.13;;;24.40;62.30;;;;;;6190659;28;20058;-70
2021/07/17 04:30:45;;;;;;;1.17;1.05;;;24.40;62.30;;;;;;6210546;28;20064;-70
2021/07/17 04:33:45;;;;;;;1.30;1.20;;;24.40;62.30;;;;;;6214662;28;20107;-70
2021/07/17 04:36:46;;;;;;;1.27;1.13;;;24.40;62.30;;;;;;6214771;28;20045;-70
2021/07/17 04:39:50;;;;;;;1.35;1.20;;;24.40;62.30;;;;;;6214592;28;20036;-70
2021/07/17 04:42:50;;;;;;;1.30;1.20;;;24.40;62.30;;;;;;6215114;28;20608;-70
2021/07/17 04:45:51;;;;;;;1.20;1.02;;;24.40;62.30;;;;;;6214533;28;20150;-71
2021/07/17 04:48:51;;;;;;;1.05;0.95;;;24.40;62.30;;;;;;6214369;28;20393;-70
2021/07/17 04:51:52;;;;;;;1.10;0.95;;;24.40;62.30;;;;;;6214732;28;20081;-70
2021/07/17 04:54:52;;;;;;;1.35;1.15;;;24.40;62.30;;;;;;6194713;28;20033;-70
2021/07/17 04:57:53;;;;;;;1.30;1.20;;;24.40;62.30;;;;;;6214554;28;20030;-70
2021/07/17 05:00:53;;;;;;;1.13;1.00;;;24.40;62.30;;;;;;6211476;28;20046;-70
2021/07/17 05:03:54;;;;;;;1.10;1.00;;;24.40;62.30;;;;;;6190490;28;20500;-70
2021/07/17 05:06:54;;;;;;;1.27;1.17;;;24.40;62.30;;;;;;6190218;28;20026;-70
2021/07/17 05:09:55;;;;;;;1.35;1.02;;;24.40;62.30;;;;;;6195330;28;20508;-70
2021/07/17 05:12:55;;;;;;;1.48;1.38;;;24.40;62.30;;;;;;6214559;28;20042;-70
2021/07/17 05:15:55;;;;;;;1.02;0.93;;;24.40;62.30;;;;;;6216948;28;20573;-70
2021/07/17 05:18:56;;;;;;;1.23;1.13;;;24.40;63.20;;;;;;6219652;28;20117;-71
2021/07/17 05:21:56;;;;;;;1.10;1.00;;;24.40;62.30;;;;;;6219344;28;20022;-71
2021/07/17 05:24:57;;;;;;;1.30;1.20;;;24.40;62.30;;;;;;6216362;28;20030;-70
2021/07/17 05:27:57;;;;;;;1.20;1.10;;;24.40;62.30;;;;;;6194460;28;20078;-70
2021/07/17 05:30:58;;;;;;;1.55;1.00;;;24.40;62.30;;;;;;6205475;28;20037;-71
2021/07/17 05:33:58;;;;;;;1.33;0.90;;;24.40;62.30;;;;;;6219082;28;20524;-71
2021/07/17 05:36:59;;;;;;;1.23;1.00;;;24.40;62.30;;;;;;6218787;28;20037;-70
2021/07/17 05:39:59;;;;;;;0.90;0.90;;;24.40;62.30;;;;;;6218438;28;20060;-70
2021/07/17 05:43:00;;;;;;;1.25;1.05;;;24.40;62.30;;;;;;6219037;28;20038;-70
2021/07/17 05:46:00;;;;;;;1.63;1.15;;;24.40;62.30;;;;;;6218913;28;20108;-70
2021/07/17 05:49:01;;;;;;;1.10;1.00;;;24.40;62.30;;;;;;6218708;28;20469;-70
2021/07/17 05:52:02;;;;;;;1.50;1.15;;;24.40;62.30;;;;;;6218462;28;20342;-70
2021/07/17 05:55:03;;;;;;;1.20;1.10;;;24.40;62.30;;;;;;6178738;28;20520;-70
2021/07/17 05:58:04;;;;;;;1.15;1.00;;;24.40;62.30;;;;;;6194283;28;20544;-70
2021/07/17 06:01:04;;;;;;;1.10;1.00;;;24.40;62.30;;;;;;6200861;28;20041;-70
2021/07/17 06:04:07;;;;;;;1.20;1.10;;;24.40;62.30;;;;;;6218279;28;20630;-70
2021/07/17 06:07:08;;;;;;;0.90;0.90;;;24.40;62.30;;;;;;6214022;28;20642;-70
2021/07/17 06:10:09;;;;;;;1.65;1.10;;;24.40;62.30;;;;;;6218026;28;20026;-70
2021/07/17 06:13:10;;;;;;;1.17;1.08;;;24.40;62.30;;;;;;6220340;28;20025;-70
2021/07/17 06:16:10;;;;;;;1.10;1.00;;;24.40;62.30;;;;;;6217590;28;20100;-70
2021/07/17 06:19:11;;;;;;;1.02;0.98;;;24.40;62.30;;;;;;6217924;28;20028;-70
2021/07/17 06:22:12;;;;;;;1.10;1.00;;;24.40;62.30;;;;;;6217895;28;20021;-70
2021/07/17 06:25:13;;;;;;;1.10;1.00;;;24.40;62.30;;;;;;6213017;28;20035;-70
2021/07/17 06:28:13;;;;;;;0.88;0.80;;;24.40;62.30;;;;;;6213662;28;20046;-71
2021/07/17 06:31:14;;;;;;;1.00;0.90;;;24.40;62.30;;;;;;6217795;28;20036;-70
2021/07/17 06:34:15;;;;;;;1.50;1.40;;;24.40;62.30;;;;;;6217390;28;20497;-71
2021/07/17 06:37:15;;;;;;;0.85;0.85;;;24.40;62.30;;;;;;6217256;28;20422;-71
2021/07/17 06:40:17;;;;;;;1.15;0.85;;;24.40;62.30;;;;;;6217615;28;20116;-70
2021/07/17 06:43:17;;;;;;;0.80;0.80;;;24.40;62.30;;;;;;6217573;28;20022;-70
2021/07/17 06:46:18;;;;;;;1.27;0.95;;;24.40;62.30;;;;;;6217360;28;20053;-71
2021/07/17 06:49:19;;;;;;;1.30;1.10;;;24.40;62.30;;;;;;6213977;28;20034;-70
2021/07/17 06:52:19;;;;;;;1.10;1.00;;;24.40;62.30;;;;;;6217541;28;20044;-70
2021/07/17 06:55:20;;;;;;;1.00;0.90;;;24.40;62.30;;;;;;6172214;28;20074;-70
2021/07/17 06:58:20;;;;;;;0.80;0.80;;;24.40;62.30;;;;;;6204605;28;20092;-70
2021/07/17 07:01:21;;;;;;;1.20;1.08;;;24.40;62.30;;;;;;6216371;28;20464;-71
2021/07/17 07:04:21;;;;;;;1.23;1.13;;;24.40;62.30;;;;;;6197711;28;20058;-70
2021/07/17 07:07:22;;;;;;;1.02;0.93;;;24.40;62.30;;;;;;6216688;28;20373;-71
2021/07/17 07:10:22;;;;;;;1.30;1.10;;;24.40;62.30;;;;;;6217137;28;20091;-70
2021/07/17 07:13:23;;;;;;;0.90;0.90;;;24.40;62.30;;;;;;6216891;28;20050;-71
2021/07/17 07:16:23;;;;;;;1.02;0.93;;;24.40;62.30;;;;;;6231982;28;20038;-71
2021/07/17 07:19:24;;;;;;;1.00;0.95;;;24.40;62.30;;;;;;6216560;28;20037;-71
2021/07/17 07:22:24;;;;;;;1.20;0.95;;;24.40;62.30;;;;;;6216739;28;20061;-70
2021/07/17 07:25:25;;;;;;;1.35;1.17;;;24.40;62.30;;;;;;6211425;28;20022;-70
2021/07/17 07:28:25;;;;;;;1.02;0.93;;;24.40;62.30;;;;;;6202041;28;20058;-70
2021/07/17 07:31:27;;;;;;;1.10;1.00;;;24.40;62.30;;;;;;6216675;28;20029;-71
2021/07/17 07:34:27;;;;;;;1.23;1.05;;;24.40;62.40;;;;;;6210767;28;20034;-71
2021/07/17 07:37:28;;;;;;;1.02;0.93;;;24.40;62.30;;;;;;6193028;28;20050;-70
2021/07/17 07:40:29;;;;;;;1.48;1.33;;;24.40;62.30;;;;;;6164295;28;20612;-70
2021/07/17 07:43:30;;;;;;;1.23;1.05;;;24.40;62.30;;;;;;6164381;28;20093;-71
2021/07/17 07:46:32;;;;;;;1.00;0.90;;;24.40;62.30;;;;;;6164116;28;20719;-70
2021/07/17 07:49:33;;;;;;;1.08;1.00;;;24.40;62.30;;;;;;6164105;28;20038;-70
2021/07/17 07:52:35;;;;;;;1.02;0.93;;;24.40;62.30;;;;;;6164251;28;20506;-70
2021/07/17 07:55:35;;;;;;;0.85;0.85;;;24.40;62.30;;;;;;6162570;28;20087;-70
2021/07/17 07:58:36;;;;;;;2.03;1.05;;;24.40;63.20;;;;;;6163618;28;20027;-70
2021/07/17 08:01:37;;;;;;;1.77;1.13;;;24.40;62.30;;;;;;6163668;28;20039;-70
2021/07/17 08:04:37;;;;;;;1.45;1.10;;;24.40;62.30;;;;;;6163594;28;20462;-70
2021/07/17 08:07:38;;;;;;;1.30;1.20;;;24.40;62.30;;;;;;6163626;28;20026;-70
2021/07/17 08:10:38;;;;;;;0.73;0.73;;;24.40;62.40;;;;;;6179961;28;20121;-69
2021/07/17 08:13:39;;;;;;;0.80;0.80;;;24.40;62.30;;;;;;6215389;28;20104;-70
2021/07/17 08:16:39;;;;;;;1.00;0.90;;;24.40;62.30;;;;;;6215322;28;20029;-70
2021/07/17 08:19:40;;;;;;;1.30;1.10;;;24.40;62.30;;;;;;6215608;28;20076;-71
2021/07/17 08:22:42;;;;;;;1.13;1.02;;;24.40;62.30;;;;;;6215352;28;20022;-70
2021/07/17 08:25:43;;;;;;;1.02;0.93;;;24.40;62.30;;;;;;6205994;28;20084;-71
2021/07/17 08:28:44;;;;;;;0.80;0.80;;;24.40;62.30;;;;;;6194314;28;20053;-70
2021/07/17 08:31:45;;;;;;;1.10;0.90;;;24.40;62.30;;;;;;6215358;28;20030;-70
2021/07/17 08:34:50;;;;;;;1.08;0.98;;;24.40;62.30;;;;;;6215047;28;20471;-70
2021/07/17 08:37:50;;;;;;;1.15;1.05;;;24.40;62.30;;;;;;6214922;28;20022;-71
2021/07/17 08:40:54;;;;;;;1.00;0.90;;;24.40;62.30;;;;;;6215048;28;20022;-70
2021/07/17 08:43:56;;;;;;;1.02;0.90;;;24.40;62.30;;;;;;6217942;28;20034;-70
2021/07/17 08:46:58;;;;;;;0.88;0.82;;;24.40;62.30;;;;;;6214830;28;20441;-70
2021/07/17 08:50:00;;;;;;;1.35;1.05;;;24.40;62.30;;;;;;6214566;28;20151;-70
2021/07/17 08:53:01;;;;;;;1.00;0.90;;;24.40;62.30;;;;;;6208308;28;20391;-71
2021/07/17 08:56:01;;;;;;;1.00;0.90;;;24.40;62.30;;;;;;6203383;28;20053;-71
2021/07/17 08:59:02;;;;;;;1.13;1.02;;;24.40;62.30;;;;;;6214490;28;20033;-71
2021/07/17 09:02:04;;;;;;;1.13;1.00;;;24.40;62.30;;;;;;6215543;28;20524;-71
2021/07/17 09:05:06;;;;;;;1.05;1.00;;;24.40;62.30;;;;;;6214686;28;20026;-70
2021/07/17 09:08:07;;;;;;;1.42;1.10;;;24.40;62.30;;;;;;6215318;28;20032;-72
2021/07/17 09:11:08;;;;;;;1.20;1.05;;;24.40;62.30;;;;;;6214723;28;20030;-71
2021/07/17 09:14:16;;;;;;;1.10;1.00;;;24.40;62.30;;;;;;6214353;28;20134;-71
2021/07/17 09:17:30;;;;;;;1.20;1.10;;;24.40;62.30;;;;;;6214173;28;20030;-70
2021/07/17 09:20:31;;;;;;;1.30;1.20;;;24.40;62.40;;;;;;6214746;28;20030;-70
2021/07/17 09:23:38;;;;;;;1.10;1.00;;;24.40;62.30;;;;;;6214741;28;20053;-70
2021/07/17 09:26:50;;;;;;;1.27;1.17;;;24.40;62.30;;;;;;6213838;28;20752;-70
2021/07/17 09:29:51;;;;;;;1.20;1.10;;;24.40;62.30;;;;;;6214077;28;20058;-71
2021/07/17 09:32:57;;;;;;;1.45;1.17;;;24.40;62.30;;;;;;6214671;28;20145;-72
2021/07/17 09:35:57;;;;;;;1.10;1.00;;;24.40;62.30;;;;;;6203856;28;20356;-70
2021/07/17 09:38:58;;;;;;;1.10;1.00;;;24.40;62.30;;;;;;6214592;28;20026;-70
2021/07/17 09:42:18;;;;;;;1.17;1.08;;;24.40;62.40;;;;;;6214257;28;20030;-71
2021/07/17 09:45:33;;;;;;;1.15;1.05;;;24.40;62.30;;;;;;6213796;28;20065;-70
2021/07/17 09:48:34;;;;;;;1.40;1.30;;;24.40;62.30;;;;;;6214769;28;20029;-70
2021/07/17 09:51:35;;;;;;;1.40;1.30;;;24.40;62.40;;;;;;6214260;28;20022;-71
2021/07/17 09:54:37;;;;;;;1.10;1.00;;;24.40;62.40;;;;;;6181392;28;20042;-70
2021/07/17 09:57:38;;;;;;;1.48;1.27;;;24.40;62.30;;;;;;6203534;28;20076;-71
2021/07/17 10:00:39;;;;;;;1.30;1.10;;;24.40;62.30;;;;;;6214357;28;20041;-70
2021/07/17 10:03:39;;;;;;;1.60;1.50;;;24.40;62.30;;;;;;6218294;28;20641;-70
2021/07/17 10:06:41;;;;;;;1.52;1.30;;;24.40;62.30;;;;;;6218680;28;20022;-70
2021/07/17 10:09:42;;;;;;;1.35;1.05;;;24.40;62.30;;;;;;6218556;28;20072;-70
2021/07/17 10:12:43;;;;;;;1.30;1.10;;;24.40;62.30;;;;;;6218274;28;20054;-71
2021/07/17 10:15:44;;;;;;;1.40;1.30;;;24.40;62.30;;;;;;6217765;28;20169;-71
2021/07/17 10:18:45;;;;;;;1.40;1.30;;;24.40;62.30;;;;;;6218124;28;20041;-70
2021/07/17 10:21:46;;;;;;;1.30;1.20;;;24.40;62.30;;;;;;6217856;28;20022;-70
2021/07/17 10:24:47;;;;;;;1.50;1.40;;;24.40;62.40;;;;;;6216603;28;20018;-70
2021/07/17 10:27:48;;;;;;;1.10;1.00;;;24.40;62.30;;;;;;6205041;28;20046;-70
2021/07/17 10:30:49;;;;;;;1.75;1.23;;;24.40;62.40;;;;;;6218345;28;20069;-70
2021/07/17 10:33:50;;;;;;;1.38;1.27;;;24.40;62.30;;;;;;6217495;28;20458;-70
2021/07/17 10:37:09;;;;;;;1.17;1.08;;;24.40;62.30;;;;;;6217529;28;20025;-70
2021/07/17 10:40:15;;;;;;;1.23;1.13;;;24.40;62.30;;;;;;6217839;28;20569;-70
2021/07/17 10:43:17;;;;;;;2.10;1.40;;;24.40;62.30;;;;;;6213768;28;20023;-70
2021/07/17 10:46:41;;;;;;;1.20;1.10;;;24.40;62.30;;;;;;6191211;28;20553;-70
2021/07/17 10:49:50;;;;;;;1.42;1.15;;;24.40;62.30;;;;;;6193775;28;20038;-70
2021/07/17 10:52:50;;;;;;;1.17;1.00;;;24.40;62.30;;;;;;6199367;28;20068;-70
2021/07/17 10:55:51;;;;;;;1.27;1.17;;;24.40;62.30;;;;;;6168899;28;20450;-70
2021/07/17 10:58:52;;;;;;;1.42;1.20;;;24.40;62.30;;;;;;6205008;28;20049;-70
2021/07/17 11:01:55;;;;;;;1.35;1.25;;;24.40;62.40;;;;;;6217128;28;20030;-71
2021/07/17 11:04:59;;;;;;;1.30;1.20;;;24.40;62.30;;;;;;6217456;28;20018;-70
2021/07/17 11:07:59;;;;;;;1.45;1.35;;;24.40;62.30;;;;;;6217217;28;20026;-70
2021/07/17 11:11:09;;;;;;;1.38;1.25;;;24.40;62.30;;;;;;6217282;28;20409;-70
2021/07/17 11:14:13;;;;;;;1.70;1.60;;;24.40;62.30;;;;;;6216400;28;20657;-71
2021/07/17 11:17:43;;;;;;;1.85;1.40;;;24.40;62.30;;;;;;6216782;28;20539;-70
2021/07/17 11:20:44;;;;;;;1.65;1.42;;;24.40;62.30;;;;;;6217213;28;20022;-71
2021/07/17 11:23:45;;;;;;;1.55;1.45;;;24.40;62.30;;;;;;6216898;28;20041;-70
2021/07/17 11:26:45;;;;;;;1.88;1.38;;;24.40;62.30;;;;;;6206271;28;20619;-69
2021/07/17 11:29:48;;;;;;;1.40;1.30;;;24.40;62.30;;;;;;6216444;28;20066;-71
2021/07/17 11:33:07;;;;;;;1.45;1.35;;;24.40;62.30;;;;;;6216511;28;20068;-70
2021/07/17 11:36:24;;;;;;;1.60;1.50;;;24.40;62.30;;;;;;6216160;28;20101;-71
2021/07/17 11:39:29;;;;;;;1.40;1.30;;;24.40;62.40;;;;;;6216353;28;20105;-70
2021/07/17 11:42:31;;;;;;;1.40;1.30;;;24.40;62.30;;;;;;6216053;28;20088;-70
2021/07/17 11:45:32;;;;;;;1.13;1.02;;;24.40;62.40;;;;;;6192315;28;20038;-70
2021/07/17 11:48:33;;;;;;;1.40;1.30;;;24.40;62.30;;;;;;6198946;28;20022;-70
2021/07/17 11:51:46;;;;;;;1.35;1.25;;;24.40;62.30;;;;;;6213287;28;20103;-70
2021/07/17 11:55:04;;;;;;;1.30;1.20;;;24.40;62.30;;;;;;6207600;28;20084;-71
2021/07/17 11:58:14;;;;;;;1.42;1.33;;;24.40;62.30;;;;;;6216513;28;20449;-71
2021/07/17 12:01:17;;;;;;;1.50;1.40;;;24.40;62.30;;;;;;6216415;28;20079;-70
2021/07/17 12:04:36;;;;;;;1.30;1.20;;;24.40;62.30;;;;;;6215609;28;20508;-70
2021/07/17 12:07:38;;;;;;;1.67;1.58;;;24.40;62.40;;;;;;6215733;28;20050;-70
2021/07/17 12:10:39;;;;;;;1.70;1.60;;;24.40;62.40;;;;;;6215783;28;20131;-71
2021/07/17 12:13:39;;;;;;;1.38;1.27;;;24.40;62.30;;;;;;6215714;28;20038;-70
2021/07/17 12:16:40;;;;;;;1.38;1.27;;;24.40;62.40;;;;;;6215522;28;20041;-70
2021/07/17 12:19:40;;;;;;;1.77;1.67;;;24.40;62.40;;;;;;6215278;28;20331;-71
2021/07/17 12:22:47;;;;;;;1.50;1.40;;;24.40;62.30;;;;;;6215552;28;20034;-71
2021/07/17 12:25:49;;;;;;;1.80;1.58;;;24.40;62.30;;;;;;6204732;28;20371;-70
2021/07/17 12:28:54;;;;;;;1.50;1.40;;;24.40;62.40;;;;;;6194040;28;20050;-70
2021/07/17 12:32:03;;;;;;;1.55;1.45;;;24.40;62.40;;;;;;6215820;28;20115;-70
2021/07/17 12:35:04;;;;;;;1.75;1.50;;;24.40;62.40;;;;;;6214701;28;20117;-71
2021/07/17 12:38:21;;;;;;;1.88;1.70;;;24.40;62.30;;;;;;6215722;28;20030;-70
2021/07/17 12:41:30;;;;;;;1.52;1.38;;;24.40;62.40;;;;;;6215063;28;20045;-70
2021/07/17 12:44:31;;;;;;;1.63;1.52;;;24.40;62.30;;;;;;6214993;28;20053;-70
2021/07/17 12:47:31;;;;;;;1.55;1.45;;;24.40;62.30;;;;;;6215203;28;20055;-70
2021/07/17 12:50:32;;;;;;;1.50;1.40;;;24.40;62.30;;;;;;6215134;28;20036;-70
2021/07/17 12:53:33;;;;;;;1.45;1.27;;;24.40;62.40;;;;;;6193459;28;20089;-70
2021/07/17 12:56:38;;;;;;;2.10;1.70;;;24.40;62.30;;;;;;6212259;28;20041;-70
2021/07/17 12:59:39;;;;;;;;;;;24.40;62.30;;;;;;6214854;28;20028;-70
2021/07/17 13:02:40;;;;;;;2.50;1.27;;;24.40;62.30;;;;;;6172114;28;19971;-71
2021/07/17 13:05:49;;;;;;;1.98;1.58;;;24.40;62.30;;;;;;6183365;28;20034;-71
2021/07/17 13:09:00;;;;;;;1.40;1.30;;;24.40;62.30;;;;;;6180763;28;20027;-70
2021/07/17 13:12:04;;;;;;;1.40;1.30;;;24.40;62.30;;;;;;6207604;28;20426;-70
2021/07/17 13:15:05;;;;;;;1.83;1.50;;;24.40;62.30;;;;;;6194793;28;20041;-70
2021/07/17 13:18:17;;;;;;;1.48;1.38;;;24.40;62.30;;;;;;6185578;28;20038;-70
2021/07/17 13:21:19;;;;;;;1.42;1.27;;;24.40;62.30;;;;;;6200543;28;20412;-70
2021/07/17 13:24:22;;;;;;;1.85;1.55;;;24.40;62.30;;;;;;6212427;28;20026;-70
2021/07/17 13:27:26;;;;;;;1.60;1.50;;;24.40;62.40;;;;;;6212784;28;20505;-70
2021/07/17 13:30:31;;;;;;;1.63;1.52;;;24.40;62.40;;;;;;6210794;28;20038;-70
2021/07/17 13:33:31;;;;;;;1.50;1.40;;;24.40;62.50;;;;;;6208499;28;20058;-70
2021/07/17 13:36:32;;;;;;;1.50;1.40;;;24.40;62.40;;;;;;6202787;28;20099;-70
2021/07/17 13:40:11;;;;;;;1.63;1.50;;;24.40;62.30;;;;;;6217490;28;20029;-71
2021/07/17 13:43:16;;;;;;;2.00;1.80;;;24.40;62.30;;;;;;6132610;28;20039;-70
2021/07/17 13:46:22;;;;;;;2.08;1.70;;;24.40;62.30;;;;;;6202276;28;20037;-71
2021/07/17 13:49:33;;;;;;;2.45;1.83;;;24.40;62.30;;;;;;6205612;28;20117;-70
2021/07/17 13:52:36;;;;;;;1.83;1.50;;;24.40;62.30;;;;;;6210832;28;20030;-71
2021/07/17 13:55:43;;;;;;;1.67;1.58;;;24.40;62.30;;;;;;6195673;28;20081;-71
2021/07/17 13:58:44;;;;;;;1.80;1.42;;;24.40;62.30;;;;;;6211280;28;20034;-70
2021/07/17 14:01:44;;;;;;;2.50;1.88;;;24.40;62.30;;;;;;6202464;28;20511;-70
2021/07/17 14:04:45;;;;;;;2.10;1.90;;;24.40;62.40;;;;;;6204033;28;20054;-70
2021/07/17 14:07:45;;;;;;;2.53;1.88;;;24.40;62.30;;;;;;6186448;28;20069;-70
2021/07/17 14:10:46;;;;;;;2.05;1.85;;;24.40;62.30;;;;;;6179301;28;20042;-70
2021/07/17 14:13:47;;;;;;;1.75;1.65;;;24.40;62.40;;;;;;6212367;28;20113;-71
2021/07/17 14:16:48;;;;;;;2.17;1.90;;;24.40;62.40;;;;;;6216582;28;20559;-69
2021/07/17 14:19:49;;;;;;;1.90;1.70;;;24.40;62.30;;;;;;6198465;28;20027;-70
2021/07/17 14:22:50;;;;;;;1.90;1.73;;;24.50;62.20;;;;;;6204537;28;20017;-70
2021/07/17 14:25:52;;;;;;;2.78;2.30;;;24.50;62.30;;;;;;6206491;28;20381;-70
2021/07/17 14:28:52;;;;;;;3.33;2.00;;;24.50;62.30;;;;;;6212112;28;20062;-70
2021/07/17 14:31:53;;;;;;;3.72;2.13;;;24.50;62.40;;;;;;6214097;28;20519;-70
2021/07/17 14:34:53;;;;;;;2.30;1.95;;;24.40;62.40;;;;;;6209146;28;20055;-70
2021/07/17 14:37:54;;;;;;;2.90;1.88;;;24.40;62.50;;;;;;6213460;28;20107;-70
2021/07/17 14:40:54;;;;;;;5.20;2.10;;;24.40;62.50;;;;;;6184764;28;20039;-70
2021/07/17 14:43:55;;;;;;;2.63;2.20;;;24.50;62.50;;;;;;6201986;28;20120;-70
2021/07/17 14:46:55;;;;;;;3.78;2.33;;;24.40;62.50;;;;;;6195885;28;20088;-70
2021/07/17 14:49:57;;;;;;;2.38;2.15;;;24.40;62.50;;;;;;6210489;28;20478;-70
2021/07/17 14:52:57;;;;;;;3.85;2.70;;;24.40;62.50;;;;;;6195231;28;20466;-70
2021/07/17 14:55:58;;;;;;;3.80;2.20;;;24.40;62.50;;;;;;6193981;28;20050;-70
2021/07/17 14:58:58;;;;;;;2.50;2.30;;;24.40;62.50;;;;;;6215822;28;20100;-70
2021/07/17 15:02:01;;;;;;;2.97;2.28;;;24.40;62.50;;;;;;6195125;28;20540;-70
2021/07/17 15:05:03;;;;;;;2.97;2.00;;;24.40;62.50;;;;;;6211109;28;20029;-70
2021/07/17 15:08:03;;;;;;;2.97;2.20;;;24.40;63.30;;;;;;6198292;28;20413;-70
2021/07/17 15:11:04;;;;;;;4.90;2.17;;;24.40;62.50;;;;;;6187804;28;20041;-70
2021/07/17 15:14:05;;;;;;;2.58;2.15;;;24.40;62.50;;;;;;6197559;28;20037;-70
2021/07/17 15:17:05;;;;;;;3.03;2.58;;;24.40;62.50;;;;;;6201323;28;20112;-70
2021/07/17 15:20:07;;;;;;;2.75;2.15;;;24.40;62.50;;;;;;6210997;28;20036;-70
2021/07/17 15:23:07;;;;;;;2.40;2.20;;;24.40;62.50;;;;;;6212689;28;20080;-70
2021/07/17 15:26:09;;;;;;;3.10;2.58;;;24.40;62.40;;;;;;6206322;28;20026;-70
2021/07/17 15:29:13;;;;;;;2.40;2.17;;;24.40;62.40;;;;;;6199615;28;20058;-70
2021/07/17 15:32:14;;;;;;;3.05;2.03;;;24.40;62.50;;;;;;6195962;28;20026;-70
2021/07/17 15:35:15;;;;;;;3.28;2.10;;;24.40;62.40;;;;;;6210135;28;20046;-70
2021/07/17 15:38:15;;;;;;;2.92;2.30;;;24.40;62.40;;;;;;6194280;28;20049;-70
2021/07/17 15:41:17;;;;;;;2.42;2.22;;;24.40;62.40;;;;;;6207349;28;20532;-70
2021/07/17 15:44:17;;;;;;;3.17;2.30;;;24.40;62.40;;;;;;6201562;28;20529;-70
2021/07/17 15:47:18;;;;;;;2.70;2.20;;;24.40;62.40;;;;;;6193624;28;20026;-70
2021/07/17 15:50:20;;;;;;;2.45;1.83;;;24.40;62.40;;;;;;6208841;28;20466;-70
2021/07/17 15:53:21;;;;;;;2.33;2.13;;;24.40;62.40;;;;;;6192628;28;20022;-69